Time;durP1;ratioP1;P1;durP2;ratioP2;P2;SDS_P1;SDS_P2;PMS_P1;PMS_P2;Temp;Humidity;BMP_temperature;BMP_pressure;BME280_temperature;BME280_humidity;BME280_pressure;Samples;Min_cycle;Max_cycle;Signal;HPM_P1;HPM_P2
2023/06/19 06:46:10;;;;;;;38.15;17.88;;;;;;;19.21;100.00;100910.56;4859772;29;20166;-82
2023/06/19 06:48:55;;;;;;;38.35;17.58;;;;;;;19.13;100.00;100920.09;4892011;29;20051;-78
2023/06/19 06:51:43;;;;;;;38.25;17.42;;;;;;;19.05;100.00;100933.28;4885893;28;20056;-78
2023/06/19 06:54:29;;;;;;;39.40;18.92;;;;;;;19.03;100.00;100940.63;4894293;29;20047;-77
2023/06/19 06:57:14;;;;;;;37.30;18.25;;;;;;;18.99;100.00;100942.66;4893552;29;22165;-88
2023/06/19 07:00:03;;;;;;;34.92;17.38;;;;;;;18.95;100.00;100948.41;4902594;29;20057;-80
2023/06/19 07:02:50;;;;;;;34.13;16.77;;;;;;;18.90;100.00;100956.78;4910734;29;20091;-81
2023/06/19 07:05:41;;;;;;;35.08;16.45;;;;;;;18.89;100.00;100954.25;4899639;29;20059;-78
2023/06/19 07:08:30;;;;;;;32.47;15.88;;;;;;;18.87;100.00;100960.56;4912359;29;20051;-79
2023/06/19 07:11:15;;;;;;;33.35;15.93;;;;;;;18.91;100.00;100958.47;4908512;29;20529;-78
2023/06/19 07:14:04;;;;;;;29.85;15.45;;;;;;;18.94;100.00;100968.13;4886965;29;20052;-77
2023/06/19 07:16:50;;;;;;;29.65;15.43;;;;;;;18.95;100.00;100965.31;4896880;29;20067;-77
2023/06/19 07:19:35;;;;;;;30.20;15.00;;;;;;;18.98;100.00;100977.66;4912054;29;20055;-76
2023/06/19 07:22:21;;;;;;;29.45;15.25;;;;;;;19.00;100.00;100989.09;4900576;29;20093;-78
2023/06/19 07:25:10;;;;;;;26.23;13.45;;;;;;;19.04;100.00;100985.25;4900487;28;20109;-80
2023/06/19 07:27:56;;;;;;;27.92;14.43;;;;;;;19.07;100.00;100992.19;4908121;29;20161;-77
2023/06/19 07:30:41;;;;;;;24.77;14.40;;;;;;;19.05;100.00;101002.19;4909652;29;20051;-78
2023/06/19 07:33:30;;;;;;;26.67;13.98;;;;;;;19.02;100.00;100992.56;4907430;29;20054;-77
2023/06/19 07:36:15;;;;;;;24.85;12.68;;;;;;;19.01;100.00;100998.84;4863836;29;20070;-79
2023/06/19 07:39:01;;;;;;;21.63;12.57;;;;;;;19.02;100.00;100991.66;4877871;29;20075;-77
2023/06/19 07:41:49;;;;;;;21.55;12.05;;;;;;;19.05;100.00;101015.59;4910538;28;20060;-78
2023/06/19 07:44:35;;;;;;;20.60;11.98;;;;;;;19.11;100.00;101013.28;4910334;29;21446;-78
2023/06/19 07:47:20;;;;;;;18.85;10.30;;;;;;;19.15;100.00;101013.91;4905500;29;22063;-78
2023/06/19 07:50:06;;;;;;;18.25;9.07;;;;;;;19.16;100.00;101014.78;4904341;29;20055;-80
2023/06/19 07:52:52;;;;;;;11.02;8.13;;;;;;;19.09;100.00;101015.25;4879164;29;20410;-79
2023/06/19 07:55:37;;;;;;;9.40;7.28;;;;;;;19.06;100.00;101015.47;4905949;29;21761;-81
2023/06/19 07:58:23;;;;;;;12.52;8.70;;;;;;;19.10;100.00;101019.63;4902981;29;20145;-78
2023/06/19 08:01:19;;;;;;;13.98;8.55;;;;;;;19.16;100.00;101033.56;4904755;29;20527;-82
2023/06/19 08:04:06;;;;;;;13.93;8.27;;;;;;;19.12;100.00;101035.63;4896237;29;20063;-77
2023/06/19 08:06:51;;;;;;;12.90;8.45;;;;;;;19.11;100.00;101036.56;4894523;29;20428;-78
2023/06/19 08:09:37;;;;;;;13.02;8.48;;;;;;;19.05;100.00;101050.47;4905585;29;20074;-79
2023/06/19 08:12:22;;;;;;;13.68;9.02;;;;;;;19.00;100.00;101042.75;4879338;29;20271;-81
2023/06/19 08:15:09;;;;;;;12.50;8.55;;;;;;;18.98;100.00;101047.41;4910394;28;20414;-77
2023/06/19 08:17:54;;;;;;;13.48;8.18;;;;;;;18.91;100.00;101049.69;4911610;29;20059;-79
2023/06/19 08:20:40;;;;;;;13.35;9.05;;;;;;;18.82;100.00;101051.28;4909303;29;20056;-83
2023/06/19 08:23:25;;;;;;;12.30;8.85;;;;;;;18.78;100.00;101059.69;4909022;29;20095;-78
2023/06/19 08:26:13;;;;;;;11.38;8.88;;;;;;;18.77;100.00;101066.84;4909935;29;20791;-82
2023/06/19 08:28:58;;;;;;;14.48;9.18;;;;;;;18.78;100.00;101079.28;4911191;29;20052;-81
2023/06/19 08:31:44;;;;;;;13.77;9.35;;;;;;;18.86;100.00;101078.72;4903691;29;20190;-79
2023/06/19 08:34:29;;;;;;;16.27;10.02;;;;;;;18.90;100.00;101080.16;4901442;29;20051;-83
2023/06/19 08:37:18;;;;;;;13.85;10.00;;;;;;;18.94;100.00;101084.34;4900252;29;20068;-82
2023/06/19 08:40:09;;;;;;;19.92;10.15;;;;;;;18.96;100.00;101089.59;4897899;29;20446;-78
2023/06/19 08:42:55;;;;;;;16.45;10.70;;;;;;;18.95;100.00;101094.09;4912667;29;20059;-82
2023/06/19 08:45:41;;;;;;;18.88;10.73;;;;;;;19.00;100.00;101101.78;4915754;29;20059;-81
2023/06/19 08:48:29;;;;;;;16.50;10.50;;;;;;;19.01;100.00;101098.09;4912528;29;20055;-82
2023/06/19 08:51:15;;;;;;;14.10;9.63;;;;;;;19.02;100.00;101105.25;4911398;28;20067;-81
2023/06/19 08:54:07;;;;;;;15.00;9.80;;;;;;;18.99;100.00;101105.44;4897795;29;20135;-86
2023/06/19 08:56:54;;;;;;;16.02;9.88;;;;;;;18.97;100.00;101104.69;4912764;28;20542;-86
2023/06/19 08:59:39;;;;;;;16.25;9.88;;;;;;;18.98;100.00;101114.47;4911217;29;20051;-83
2023/06/19 09:02:45;;;;;;;16.75;10.02;;;;;;;18.93;100.00;101114.81;4900145;29;20040;-85
2023/06/19 09:05:30;;;;;;;17.45;9.70;;;;;;;18.91;100.00;101119.41;4906351;29;20119;-78
2023/06/19 09:08:17;;;;;;;15.25;10.00;;;;;;;18.95;100.00;101125.44;4905578;29;20516;-82
2023/06/19 09:11:04;;;;;;;17.13;10.23;;;;;;;18.99;100.00;101125.06;4890552;29;20048;-78
2023/06/19 09:13:57;;;;;;;13.77;9.15;;;;;;;19.03;100.00;101125.72;4909123;29;20067;-77
2023/06/19 09:16:43;;;;;;;15.23;9.30;;;;;;;19.06;100.00;101128.16;4907004;29;20499;-81
2023/06/19 09:19:29;;;;;;;14.02;9.77;;;;;;;19.13;100.00;101124.03;4892610;29;20055;-79
2023/06/19 09:22:18;;;;;;;14.68;9.85;;;;;;;19.22;100.00;101132.31;4905424;28;20964;-79
2023/06/19 09:25:04;;;;;;;17.30;10.43;;;;;;;19.29;100.00;101133.59;4911286;29;20123;-80
2023/06/19 09:27:49;;;;;;;14.57;9.30;;;;;;;19.33;100.00;101139.56;4913112;29;20090;-78
2023/06/19 09:30:35;;;;;;;16.63;9.27;;;;;;;19.32;100.00;101130.66;4908275;29;20051;-83
2023/06/19 09:33:20;;;;;;;13.82;10.02;;;;;;;19.30;100.00;101146.03;4913380;29;20055;-78
2023/06/19 09:36:09;;;;;;;17.50;11.00;;;;;;;19.24;100.00;101154.56;4908552;29;20758;-78
2023/06/19 09:38:55;;;;;;;16.95;10.18;;;;;;;19.18;100.00;101152.34;4897822;29;20550;-84
2023/06/19 09:41:42;;;;;;;17.70;11.18;;;;;;;19.17;100.00;101161.38;4909161;28;20226;-85
2023/06/19 09:44:31;;;;;;;18.48;11.07;;;;;;;19.20;100.00;101167.34;4915423;28;20052;-82
2023/06/19 09:47:23;;;;;;;17.27;10.43;;;;;;;19.25;100.00;101172.38;4907267;29;20526;-86
2023/06/19 09:50:12;;;;;;;14.82;9.98;;;;;;;19.37;100.00;101190.19;4900984;29;20039;-88
2023/06/19 09:53:00;;;;;;;15.57;10.60;;;;;;;19.48;100.00;101183.13;4914014;29;20119;-79
2023/06/19 09:55:52;;;;;;;17.25;10.70;;;;;;;19.55;100.00;101176.31;4899187;29;20076;-84
2023/06/19 09:58:38;;;;;;;16.23;11.20;;;;;;;19.65;100.00;101174.63;4904822;29;20055;-85
2023/06/19 10:01:24;;;;;;;19.15;11.63;;;;;;;19.67;100.00;101175.34;4896772;29;20447;-85
2023/06/19 10:04:11;;;;;;;14.55;9.93;;;;;;;19.75;100.00;101168.50;4910840;29;20051;-85
2023/06/19 10:06:57;;;;;;;16.33;10.50;;;;;;;19.85;100.00;101171.31;4896505;29;20044;-84
2023/06/19 10:10:06;;;;;;;17.20;11.20;;;;;;;19.98;100.00;101179.28;4888556;29;20886;-78
2023/06/19 10:12:54;;;;;;;;;;;;;;;20.16;100.00;101171.56;4905480;29;20044;-81
2023/06/19 10:15:44;;;;;;;19.95;11.68;;;;;;;20.42;100.00;101180.19;4907107;29;19927;-77
2023/06/19 10:18:32;;;;;;;19.60;11.32;;;;;;;20.65;100.00;101169.38;4889893;29;20056;-79
2023/06/19 10:21:21;;;;;;;14.02;9.90;;;;;;;20.65;100.00;101177.44;4909838;29;20043;-77
2023/06/19 10:24:14;;;;;;;18.52;11.95;;;;;;;20.56;100.00;101186.25;4908143;28;20207;-76
2023/06/19 10:27:01;;;;;;;18.55;12.48;;;;;;;20.48;100.00;101194.94;4908967;29;20574;-76
2023/06/19 10:29:53;;;;;;;20.45;13.02;;;;;;;20.56;100.00;101186.25;4906077;29;20052;-79
2023/06/19 10:32:39;;;;;;;17.92;11.43;;;;;;;20.77;100.00;101192.53;4872322;29;20082;-85
2023/06/19 10:35:24;;;;;;;18.67;11.18;;;;;;;21.08;100.00;101199.03;4888731;29;20056;-85
2023/06/19 10:38:10;;;;;;;15.63;10.02;;;;;;;21.17;100.00;101207.19;4898905;29;22032;-80
2023/06/19 10:40:56;;;;;;;13.32;9.32;;;;;;;21.26;100.00;101184.03;4908791;29;20065;-82
2023/06/19 10:43:56;;;;;;;14.65;10.38;;;;;;;21.32;100.00;101203.31;4908766;29;20062;-78
2023/06/19 10:46:41;;;;;;;16.90;10.25;;;;;;;21.28;100.00;101198.19;4905125;29;20059;-82
2023/06/19 10:49:29;;;;;;;16.77;11.02;;;;;;;21.19;100.00;101219.66;4901004;29;20751;-79
2023/06/19 10:52:16;;;;;;;16.85;11.48;;;;;;;21.14;100.00;101222.75;4890231;29;20056;-79
2023/06/19 10:55:03;;;;;;;21.52;12.80;;;;;;;21.11;100.00;101223.00;4899495;29;20075;-80
2023/06/19 10:57:50;;;;;;;21.60;13.23;;;;;;;20.94;100.00;101230.66;4898874;29;20336;-78
2023/06/19 11:00:35;;;;;;;20.88;12.55;;;;;;;20.86;100.00;101228.59;4894470;29;20047;-83
2023/06/19 11:03:21;;;;;;;20.10;12.57;;;;;;;20.81;100.00;101233.47;4908185;29;20059;-84
2023/06/19 11:06:06;;;;;;;18.05;11.93;;;;;;;20.83;100.00;101238.75;4896761;29;20755;-79
2023/06/19 11:08:52;;;;;;;21.35;12.38;;;;;;;20.84;100.00;101237.78;4884550;29;20063;-79
2023/06/19 11:11:39;;;;;;;19.20;12.68;;;;;;;20.92;100.00;101229.09;4895695;29;20054;-77
2023/06/19 11:14:29;;;;;;;17.98;11.48;;;;;;;21.05;100.00;101236.97;4873831;29;20710;-80
2023/06/19 11:17:15;;;;;;;19.38;12.02;;;;;;;21.21;100.00;101234.69;4896617;29;20059;-80
2023/06/19 11:20:00;;;;;;;17.63;12.13;;;;;;;21.28;99.95;101232.34;4900603;29;22459;-79
2023/06/19 11:22:46;;;;;;;20.13;12.07;;;;;;;21.25;100.00;101240.69;4897890;29;20051;-83
2023/06/19 11:25:36;;;;;;;17.13;12.40;;;;;;;21.21;98.23;101240.09;4903143;29;20601;-82
2023/06/19 11:28:22;;;;;;;17.35;12.05;;;;;;;21.20;100.00;101238.38;4907939;29;20588;-82
2023/06/19 11:31:09;;;;;;;16.02;11.85;;;;;;;21.36;99.49;101239.75;4902931;29;20059;-86
2023/06/19 11:34:02;;;;;;;16.33;11.20;;;;;;;21.48;97.38;101227.94;4889248;29;20130;-83
2023/06/19 11:36:47;;;;;;;;;;;;;;;21.46;96.16;101234.44;4896925;29;20066;-85
2023/06/19 11:39:33;;;;;;;13.73;10.10;;;;;;;21.56;98.26;101227.25;4896451;29;20656;-83
2023/06/19 11:42:18;;;;;;;13.95;9.25;;;;;;;21.75;97.29;101221.19;4890093;29;20408;-78
2023/06/19 11:45:08;;;;;;;15.32;10.25;;;;;;;21.91;96.70;101215.31;4898769;29;20059;-84
2023/06/19 11:47:54;;;;;;;11.55;8.20;;;;;;;22.00;95.96;101219.00;4891031;29;20245;-82
2023/06/19 11:50:39;;;;;;;9.60;7.15;;;;;;;22.10;95.69;101214.50;4880248;29;20056;-79
2023/06/19 11:53:25;;;;;;;12.55;8.27;;;;;;;22.26;93.85;101218.53;4896376;29;20058;-84
2023/06/19 11:56:10;;;;;;;12.73;8.40;;;;;;;22.36;92.93;101219.41;4900066;29;20114;-79
2023/06/19 11:58:56;;;;;;;9.82;6.82;;;;;;;22.33;91.66;101222.38;4897873;29;20198;-81
2023/06/19 12:01:42;;;;;;;10.32;6.60;;;;;;;22.32;91.86;101226.06;4880198;29;20067;-80
2023/06/19 12:04:27;;;;;;;11.02;7.60;;;;;;;22.37;90.64;101234.59;4875014;29;20082;-80
2023/06/19 12:07:13;;;;;;;10.98;7.45;;;;;;;22.39;91.81;101234.47;4883226;29;22107;-86
2023/06/19 12:09:58;;;;;;;11.60;7.43;;;;;;;22.51;91.25;101238.75;4896071;29;20055;-79
2023/06/19 12:12:44;;;;;;;11.90;7.63;;;;;;;22.56;89.98;101235.69;4889697;29;20051;-79
2023/06/19 12:15:32;;;;;;;9.68;6.28;;;;;;;22.64;90.88;101243.91;4877170;29;20551;-84
2023/06/19 12:18:17;;;;;;;12.45;7.95;;;;;;;22.77;89.19;101240.09;4894138;29;20067;-77
2023/06/19 12:21:04;;;;;;;10.88;7.40;;;;;;;22.76;88.75;101235.66;4876326;29;20083;-82
2023/06/19 12:23:49;;;;;;;9.25;6.60;;;;;;;22.90;89.41;101237.97;4901051;29;20059;-83
2023/06/19 12:26:39;;;;;;;9.75;6.50;;;;;;;23.11;89.04;101236.97;4890819;29;20086;-77
2023/06/19 12:29:25;;;;;;;9.27;6.68;;;;;;;23.26;87.09;101239.25;4875785;29;20078;-83
2023/06/19 12:32:11;;;;;;;7.28;5.72;;;;;;;23.35;86.60;101242.97;4895169;29;20059;-82
2023/06/19 12:34:57;;;;;;;7.38;6.10;;;;;;;23.49;87.04;101241.66;4886770;29;20059;-81
2023/06/19 12:37:43;;;;;;;8.73;6.30;;;;;;;23.66;86.63;101240.03;4887058;29;20523;-84
2023/06/19 12:40:32;;;;;;;9.57;6.20;;;;;;;23.78;83.74;101248.81;4889231;29;20054;-82
2023/06/19 12:43:17;;;;;;;7.20;5.78;;;;;;;23.91;84.96;101243.09;4879845;29;20059;-83
2023/06/19 12:46:03;;;;;;;7.32;5.68;;;;;;;24.09;84.35;101245.91;4893475;29;20048;-83
2023/06/19 12:48:50;;;;;;;9.32;6.43;;;;;;;23.99;81.74;101254.88;4894150;29;20075;-84
2023/06/19 12:51:35;;;;;;;10.75;7.18;;;;;;;23.91;81.31;101262.84;4879366;29;20077;-82
2023/06/19 12:54:21;;;;;;;9.07;6.82;;;;;;;23.91;82.06;101262.84;4900165;29;20407;-84
2023/06/19 12:57:06;;;;;;;10.10;7.32;;;;;;;24.04;80.07;101265.25;4899430;29;20213;-78
2023/06/19 12:59:52;;;;;;;8.90;6.95;;;;;;;24.11;82.15;101262.81;4903341;29;20511;-83
2023/06/19 13:02:47;;;;;;;9.52;6.38;;;;;;;24.23;79.67;101267.03;4906816;29;20043;-82
2023/06/19 13:05:33;;;;;;;9.63;5.82;;;;;;;24.30;80.97;101267.31;4885709;29;20171;-83
2023/06/19 13:08:19;;;;;;;10.90;6.78;;;;;;;24.45;80.27;101275.75;4902403;29;20136;-81
2023/06/19 13:11:04;;;;;;;8.57;6.28;;;;;;;24.51;79.82;101275.13;4886433;29;20055;-81
2023/06/19 13:13:49;;;;;;;9.35;6.60;;;;;;;24.50;79.68;101270.72;4905923;29;20150;-82
2023/06/19 13:16:35;;;;;;;9.60;7.20;;;;;;;24.54;79.10;101282.97;4888616;29;20043;-81
2023/06/19 13:19:21;;;;;;;12.90;7.57;;;;;;;24.67;78.34;101279.03;4856280;29;20040;-82
2023/06/19 13:22:06;;;;;;;10.18;6.68;;;;;;;24.66;78.43;101269.22;4904242;29;20174;-80
2023/06/19 13:24:52;;;;;;;8.55;6.53;;;;;;;24.59;77.30;101277.09;4901430;29;20048;-83
2023/06/19 13:27:37;;;;;;;7.70;6.20;;;;;;;24.67;77.85;101289.84;4888127;29;20060;-77
2023/06/19 13:30:23;;;;;;;9.23;6.05;;;;;;;24.74;76.20;101285.56;4904925;29;20040;-84
2023/06/19 13:33:09;;;;;;;8.02;5.65;;;;;;;24.77;75.75;101293.34;4886755;29;20059;-80
2023/06/19 13:35:54;;;;;;;8.68;6.45;;;;;;;24.77;74.94;101296.06;4875747;29;20059;-82
2023/06/19 13:38:40;;;;;;;7.80;5.40;;;;;;;24.81;76.55;101297.50;4904170;29;20073;-78
2023/06/19 13:41:26;;;;;;;7.43;5.00;;;;;;;24.93;74.71;101299.97;4887745;29;20051;-81
2023/06/19 13:44:12;;;;;;;7.70;4.78;;;;;;;25.00;75.16;101306.47;4888986;29;20083;-78
2023/06/19 13:46:57;;;;;;;5.70;4.72;;;;;;;25.08;74.27;101297.59;4897970;29;20059;-86
2023/06/19 13:49:43;;;;;;;6.35;5.03;;;;;;;25.19;73.47;101300.06;4898717;29;20082;-84
2023/06/19 13:52:28;;;;;;;6.50;4.80;;;;;;;25.22;73.68;101298.91;4893030;29;20059;-82
2023/06/19 13:55:15;;;;;;;8.00;5.30;;;;;;;25.24;73.48;101299.59;4895927;29;20043;-83
2023/06/19 13:58:03;;;;;;;4.72;4.00;;;;;;;25.28;72.57;101298.25;4893104;29;20417;-82
2023/06/19 14:00:52;;;;;;;5.95;4.80;;;;;;;25.27;69.56;101296.56;4901963;29;21940;-84
2023/06/19 14:03:41;;;;;;;4.90;3.88;;;;;;;25.29;71.22;101304.53;4900471;29;21327;-82
2023/06/19 14:06:26;;;;;;;5.25;4.10;;;;;;;25.39;71.35;101307.16;4882708;29;20079;-83
2023/06/19 14:09:12;;;;;;;5.57;4.43;;;;;;;25.42;70.53;101304.13;4895650;29;20083;-83
2023/06/19 14:11:59;;;;;;;5.00;4.05;;;;;;;25.36;69.82;101301.06;4899621;29;20056;-82
2023/06/19 14:14:44;;;;;;;4.25;3.65;;;;;;;25.36;68.88;101300.19;4894926;29;20058;-83
2023/06/19 14:17:30;;;;;;;4.65;3.97;;;;;;;25.32;68.76;101305.06;4892832;29;20051;-87
2023/06/19 14:20:15;;;;;;;5.70;4.75;;;;;;;25.41;69.35;101299.72;4900199;29;20056;-85
2023/06/19 14:23:01;;;;;;;5.57;4.20;;;;;;;25.49;69.59;101299.81;4884052;29;20908;-85
2023/06/19 14:25:49;;;;;;;5.15;4.00;;;;;;;25.56;68.18;101298.19;4868413;29;20047;-84
2023/06/19 14:28:38;;;;;;;7.28;4.50;;;;;;;25.59;68.38;101299.72;4896168;29;20095;-87
2023/06/19 14:31:23;;;;;;;6.25;4.13;;;;;;;25.58;69.48;101298.88;4894079;29;20130;-80
2023/06/19 14:34:09;;;;;;;5.82;4.63;;;;;;;25.55;68.79;101292.94;4901930;29;20043;-82
2023/06/19 14:36:54;;;;;;;5.78;4.70;;;;;;;25.58;68.16;101287.19;4893671;29;20627;-78
2023/06/19 14:39:40;;;;;;;6.38;4.20;;;;;;;25.57;67.82;101291.75;4884856;29;20044;-83
2023/06/19 14:42:25;;;;;;;6.72;4.15;;;;;;;25.59;67.34;101288.88;4886637;29;20047;-85
2023/06/19 14:45:11;;;;;;;5.55;3.92;;;;;;;25.66;66.44;101289.97;4891808;29;21501;-82
2023/06/19 14:47:59;;;;;;;5.30;3.67;;;;;;;25.62;65.76;101284.00;4898246;29;20406;-81
2023/06/19 14:50:45;;;;;;;5.78;3.75;;;;;;;25.67;65.90;101298.94;4900202;29;20044;-80
2023/06/19 14:53:31;;;;;;;6.85;3.83;;;;;;;25.69;64.97;101300.47;4897619;29;20051;-81
2023/06/19 14:56:25;;;;;;;4.30;3.17;;;;;;;25.66;60.14;101297.25;4902663;29;20114;-81
2023/06/19 14:59:11;;;;;;;4.60;2.85;;;;;;;25.55;62.27;101293.75;4879509;29;20055;-80
2023/06/19 15:01:57;;;;;;;5.25;3.60;;;;;;;25.54;63.11;101285.81;4896465;29;20130;-81
2023/06/19 15:04:42;;;;;;;4.78;3.45;;;;;;;25.55;62.54;101291.06;4900634;29;20043;-79
2023/06/19 15:07:28;;;;;;;4.38;3.20;;;;;;;25.45;63.08;101295.69;4895300;29;20139;-79
2023/06/19 15:10:13;;;;;;;4.70;3.80;;;;;;;25.44;63.18;101297.53;4897238;29;20536;-81
2023/06/19 15:12:59;;;;;;;4.90;3.53;;;;;;;25.45;62.90;101298.41;4872010;29;20059;-79
2023/06/19 15:15:47;;;;;;;5.68;3.65;;;;;;;25.44;62.44;101294.84;4885196;29;20123;-80
2023/06/19 15:18:33;;;;;;;4.72;3.35;;;;;;;25.49;62.40;101294.38;4896116;28;20055;-79
2023/06/19 15:21:19;;;;;;;6.07;3.58;;;;;;;25.48;61.57;101293.53;4879018;29;20755;-80
2023/06/19 15:24:04;;;;;;;5.13;3.55;;;;;;;25.49;61.54;101300.66;4890559;29;20063;-82
2023/06/19 15:26:50;;;;;;;5.78;3.50;;;;;;;25.49;60.49;101303.34;4890989;29;20064;-80
2023/06/19 15:29:36;;;;;;;4.68;3.00;;;;;;;25.55;61.25;101301.91;4882440;29;20051;-85
2023/06/19 15:32:21;;;;;;;5.07;3.50;;;;;;;25.44;60.09;101305.69;4893011;29;20044;-84
2023/06/19 15:35:07;;;;;;;5.50;3.28;;;;;;;25.39;60.87;101305.31;4880465;29;20098;-81
2023/06/19 15:37:52;;;;;;;6.10;4.00;;;;;;;25.41;60.39;101305.16;4883364;29;20044;-81
2023/06/19 15:40:38;;;;;;;4.57;3.28;;;;;;;25.44;61.34;101300.25;4893058;29;20112;-81
2023/06/19 15:43:28;;;;;;;4.05;3.42;;;;;;;25.45;61.51;101303.84;4897891;29;20055;-80
2023/06/19 15:46:16;;;;;;;5.05;3.65;;;;;;;25.47;61.45;101297.25;4902210;29;20538;-74
2023/06/19 15:49:03;;;;;;;4.40;2.92;;;;;;;25.48;61.45;101303.50;4895150;29;20059;-76
2023/06/19 15:51:48;;;;;;;4.88;3.40;;;;;;;25.43;61.86;101295.84;4896621;29;20067;-75
2023/06/19 15:54:33;;;;;;;5.40;3.03;;;;;;;25.46;62.09;101294.69;4896892;29;20047;-75
2023/06/19 15:57:20;;;;;;;4.50;3.35;;;;;;;25.49;61.77;101289.81;4895309;29;20072;-75
2023/06/19 16:00:06;;;;;;;4.07;2.97;;;;;;;25.53;61.94;101290.38;4882494;29;20126;-74
2023/06/19 16:02:52;;;;;;;3.78;3.17;;;;;;;25.48;61.35;101287.25;4895196;29;20055;-81
2023/06/19 16:05:37;;;;;;;4.40;3.22;;;;;;;25.50;61.80;101286.09;4868250;29;20057;-76
2023/06/19 16:08:25;;;;;;;5.35;3.80;;;;;;;25.54;62.16;101277.69;4896770;29;20178;-77
2023/06/19 16:11:12;;;;;;;5.75;3.60;;;;;;;25.56;62.11;101284.66;4888142;29;20056;-79
2023/06/19 16:13:57;;;;;;;5.50;3.33;;;;;;;25.56;62.53;101284.66;4879324;29;20039;-75
2023/06/19 16:16:43;;;;;;;4.55;3.38;;;;;;;25.61;62.80;101276.88;4891114;29;20055;-75
2023/06/19 16:19:28;;;;;;;5.57;3.45;;;;;;;25.65;61.70;101290.13;4874610;29;20930;-75
2023/06/19 16:22:16;;;;;;;7.68;3.95;;;;;;;25.72;60.95;101291.19;4892284;29;20142;-77
2023/06/19 16:25:02;;;;;;;4.70;3.40;;;;;;;25.76;61.27;101281.69;4889922;29;20075;-78
2023/06/19 16:27:48;;;;;;;4.25;3.50;;;;;;;25.75;60.80;101288.16;4891361;29;20135;-76
2023/06/19 16:30:34;;;;;;;4.30;3.58;;;;;;;25.78;60.41;101290.56;4893507;29;20071;-78
2023/06/19 16:33:19;;;;;;;4.22;3.28;;;;;;;25.81;60.25;101297.53;4877278;29;20122;-77
2023/06/19 16:36:05;;;;;;;3.90;3.20;;;;;;;25.76;59.77;101289.84;4867588;29;20090;-80
2023/06/19 16:38:51;;;;;;;6.25;3.30;;;;;;;25.75;59.20;101294.44;4895006;29;20058;-78
2023/06/19 16:41:36;;;;;;;5.25;3.40;;;;;;;25.79;58.70;101300.38;4877298;29;20050;-77
2023/06/19 16:44:24;;;;;;;4.22;3.22;;;;;;;25.73;58.03;101295.59;4898027;29;20078;-78
2023/06/19 16:47:12;;;;;;;7.03;3.30;;;;;;;25.61;57.89;101292.31;4896996;29;20154;-76
2023/06/19 16:49:58;;;;;;;4.50;3.22;;;;;;;25.64;57.93;101297.38;4883500;29;20063;-78
2023/06/19 16:52:43;;;;;;;7.30;3.60;;;;;;;25.65;58.62;101295.53;4883785;29;20664;-77
2023/06/19 16:55:29;;;;;;;4.85;3.65;;;;;;;25.73;58.70;101295.59;4894039;29;20071;-74
2023/06/19 16:58:17;;;;;;;6.05;4.38;;;;;;;25.95;58.19;101309.63;4897079;29;20052;-77
2023/06/19 17:01:05;;;;;;;4.30;3.17;;;;;;;26.10;56.84;101309.88;4887407;29;20056;-75
2023/06/19 17:03:50;;;;;;;5.45;4.00;;;;;;;26.20;56.38;101307.88;4897097;29;20143;-79
2023/06/19 17:06:38;;;;;;;5.32;3.72;;;;;;;26.22;56.30;101300.47;4897151;29;20052;-78
2023/06/19 17:09:24;;;;;;;5.40;3.85;;;;;;;26.33;55.87;101312.91;4875793;29;20052;-75
2023/06/19 17:12:09;;;;;;;6.85;3.78;;;;;;;26.52;55.85;101316.38;4890118;29;20643;-74
2023/06/19 17:14:57;;;;;;;6.07;3.85;;;;;;;26.53;55.40;101309.94;4896953;29;20060;-76
2023/06/19 17:17:47;;;;;;;4.50;3.60;;;;;;;26.74;55.17;101309.47;4883085;29;20866;-77
2023/06/19 17:20:33;;;;;;;7.32;4.00;;;;;;;27.02;53.89;101305.66;4888084;29;20186;-76
2023/06/19 17:23:19;;;;;;;4.22;3.72;;;;;;;27.00;53.90;101313.13;4877161;29;20043;-75
2023/06/19 17:26:04;;;;;;;4.65;3.33;;;;;;;26.68;53.60;101321.84;4897999;29;20055;-75
2023/06/19 17:28:50;;;;;;;4.13;3.47;;;;;;;26.24;54.43;101319.28;4891920;29;20048;-76
2023/06/19 17:31:37;;;;;;;8.85;4.35;;;;;;;25.90;56.03;101313.69;4880722;29;20139;-75
2023/06/19 17:34:23;;;;;;;6.22;3.97;;;;;;;25.74;57.18;101311.72;4884923;29;21124;-75
2023/06/19 17:37:08;;;;;;;5.68;4.00;;;;;;;25.57;57.66;101318.88;4888216;28;20590;-76
2023/06/19 17:39:54;;;;;;;5.15;3.90;;;;;;;25.41;57.94;101324.09;4879371;29;20173;-76
2023/06/19 17:42:45;;;;;;;5.20;3.63;;;;;;;25.19;58.58;101323.59;4891423;29;20048;-76
2023/06/19 17:45:33;;;;;;;7.85;4.20;;;;;;;24.98;59.30;101319.31;4893221;29;20059;-77
2023/06/19 17:48:19;;;;;;;5.75;4.07;;;;;;;24.80;59.69;101322.84;4858402;29;20062;-78
2023/06/19 17:51:05;;;;;;;7.50;5.57;;;;;;;24.66;60.16;101329.63;4896137;29;20697;-78
2023/06/19 17:53:50;;;;;;;6.13;4.60;;;;;;;24.51;60.78;101334.66;4890052;29;20047;-77
2023/06/19 17:56:36;;;;;;;7.05;3.90;;;;;;;24.34;60.95;101328.19;4902585;29;20502;-79
2023/06/19 17:59:21;;;;;;;8.77;4.25;;;;;;;24.16;61.34;101329.97;4896156;29;20044;-79
2023/06/19 18:02:07;;;;;;;6.13;4.35;;;;;;;24.03;61.33;101333.84;4884397;29;20059;-79
2023/06/19 18:04:52;;;;;;;4.97;4.20;;;;;;;23.92;61.97;101328.59;4900828;29;20043;-78
2023/06/19 18:07:41;;;;;;;5.95;4.13;;;;;;;23.79;62.46;101331.63;4869737;29;20479;-77
2023/06/19 18:10:26;;;;;;;6.60;4.57;;;;;;;23.58;63.15;101327.22;4902833;29;20594;-79
2023/06/19 18:13:12;;;;;;;5.95;4.47;;;;;;;23.44;63.80;101332.06;4902593;29;20502;-79
2023/06/19 18:15:57;;;;;;;7.05;4.75;;;;;;;23.29;64.19;101339.72;4898648;29;20118;-79
2023/06/19 18:18:43;;;;;;;8.45;5.00;;;;;;;23.15;65.40;101345.56;4887891;29;20063;-79
2023/06/19 18:21:29;;;;;;;6.45;4.80;;;;;;;22.98;65.92;101353.31;4882439;29;20440;-83
2023/06/19 18:24:14;;;;;;;10.13;5.93;;;;;;;22.84;66.86;101345.63;4893641;29;20047;-78
2023/06/19 18:27:00;;;;;;;7.25;5.47;;;;;;;22.69;67.51;101339.75;4882506;29;20055;-78
2023/06/19 18:29:45;;;;;;;8.85;5.72;;;;;;;22.53;68.62;101338.44;4876003;29;20476;-79
2023/06/19 18:32:31;;;;;;;9.52;5.32;;;;;;;22.41;69.24;101334.09;4883739;29;20202;-80
2023/06/19 18:35:17;;;;;;;7.32;5.30;;;;;;;22.29;69.69;101336.03;4880181;29;20656;-81
2023/06/19 18:38:12;;;;;;;8.07;5.60;;;;;;;22.14;71.28;101327.44;4869028;29;20083;-81
2023/06/19 18:40:58;;;;;;;7.80;5.35;;;;;;;22.06;70.76;101330.84;4886643;29;20043;-80
2023/06/19 18:43:43;;;;;;;8.55;5.97;;;;;;;21.98;71.38;101336.88;4902288;29;20056;-81
2023/06/19 18:46:29;;;;;;;10.32;6.03;;;;;;;21.87;71.53;101331.56;4893044;29;20036;-79
2023/06/19 18:49:14;;;;;;;8.93;5.50;;;;;;;21.72;71.93;101337.28;4899852;29;20066;-79
2023/06/19 18:52:03;;;;;;;8.15;5.50;;;;;;;21.62;72.92;101336.34;4895655;29;20161;-79
2023/06/19 18:54:51;;;;;;;9.70;5.93;;;;;;;21.52;73.34;101339.78;4897598;29;20063;-81
2023/06/19 18:57:36;;;;;;;9.30;5.68;;;;;;;21.48;73.51;101343.75;4902614;29;21645;-80
2023/06/19 19:00:25;;;;;;;8.77;6.10;;;;;;;21.41;73.43;101329.09;4898595;29;20406;-80
2023/06/19 19:03:11;;;;;;;8.15;5.40;;;;;;;21.34;74.24;101335.97;4896201;29;20941;-80
2023/06/19 19:05:56;;;;;;;7.13;5.18;;;;;;;21.25;74.39;101337.59;4900694;29;20158;-78
2023/06/19 19:08:42;;;;;;;8.77;5.65;;;;;;;21.11;75.30;101341.44;4902539;29;20098;-80
2023/06/19 19:11:31;;;;;;;8.02;5.93;;;;;;;20.93;76.58;101344.66;4875444;29;20157;-80
2023/06/19 19:14:16;;;;;;;10.50;6.78;;;;;;;20.83;76.90;101338.28;4901361;29;20055;-80
2023/06/19 19:17:03;;;;;;;14.05;7.47;;;;;;;20.72;77.99;101340.03;4887705;29;20095;-81
2023/06/19 19:19:48;;;;;;;13.15;7.70;;;;;;;20.61;78.42;101331.97;4897999;29;20518;-81
2023/06/19 19:22:34;;;;;;;10.85;6.97;;;;;;;20.55;79.21;101341.38;4893068;29;20134;-78
2023/06/19 19:25:22;;;;;;;10.43;7.13;;;;;;;20.50;79.65;101338.22;4888486;29;20040;-82
2023/06/19 19:28:13;;;;;;;10.18;6.45;;;;;;;20.44;78.91;101339.53;4899677;29;20055;-82
2023/06/19 19:30:59;;;;;;;9.88;6.05;;;;;;;20.38;78.55;101340.06;4873260;29;20130;-83